sensor_id;sensor_type;location;lat;lon;timestamp;pressure;altitude;pressure_sealevel;temperature
74043;BMP280;62384;53.600;10.040;2023-06-10T00:01:51;71551.09;;;16.47
74043;BMP280;62384;53.600;10.040;2023-06-10T00:04:20;71602.25;;;16.32
74043;BMP280;62384;53.600;10.040;2023-06-10T00:06:46;71481.41;;;16.42
74043;BMP280;62384;53.600;10.040;2023-06-10T00:09:13;71685.47;;;16.27
74043;BMP280;62384;53.600;10.040;2023-06-10T00:11:40;71581.59;;;16.10
74043;BMP280;62384;53.600;10.040;2023-06-10T00:14:06;71490.44;;;16.10
74043;BMP280;62384;53.600;10.040;2023-06-10T00:16:32;71470.13;;;16.06
74043;BMP280;62384;53.600;10.040;2023-06-10T00:18:59;71886.22;;;16.11
74043;BMP280;62384;53.600;10.040;2023-06-10T00:21:29;71954.44;;;15.97
74043;BMP280;62384;53.600;10.040;2023-06-10T00:23:55;71922.28;;;15.90
74043;BMP280;62384;53.600;10.040;2023-06-10T00:26:24;71947.50;;;15.91
74043;BMP280;62384;53.600;10.040;2023-06-10T00:28:49;71986.09;;;15.87
74043;BMP280;62384;53.600;10.040;2023-06-10T00:31:15;72005.41;;;15.87
74043;BMP280;62384;53.600;10.040;2023-06-10T00:33:47;71944.28;;;15.88
74043;BMP280;62384;53.600;10.040;2023-06-10T00:36:28;71924.97;;;15.92
74043;BMP280;62384;53.600;10.040;2023-06-10T00:38:53;72231.66;;;15.76
74043;BMP280;62384;53.600;10.040;2023-06-10T00:41:18;72234.88;;;15.71
74043;BMP280;62384;53.600;10.040;2023-06-10T00:43:47;72335.16;;;15.77
74043;BMP280;62384;53.600;10.040;2023-06-10T00:46:12;72414.50;;;15.81
74043;BMP280;62384;53.600;10.040;2023-06-10T00:48:40;72516.91;;;15.82
74043;BMP280;62384;53.600;10.040;2023-06-10T00:51:06;72528.09;;;15.67
74043;BMP280;62384;53.600;10.040;2023-06-10T00:53:42;72485.78;;;15.73
74043;BMP280;62384;53.600;10.040;2023-06-10T00:56:07;72459.47;;;15.68
74043;BMP280;62384;53.600;10.040;2023-06-10T00:58:33;72365.66;;;15.58
74043;BMP280;62384;53.600;10.040;2023-06-10T01:00:58;72342.06;;;15.59
74043;BMP280;62384;53.600;10.040;2023-06-10T01:03:25;72253.63;;;15.56
74043;BMP280;62384;53.600;10.040;2023-06-10T01:06:18;72159.84;;;15.49
74043;BMP280;62384;53.600;10.040;2023-06-10T01:08:58;72235.41;;;15.52
74043;BMP280;62384;53.600;10.040;2023-06-10T01:11:41;72339.41;;;15.66
74043;BMP280;62384;53.600;10.040;2023-06-10T01:14:09;72535.56;;;15.59
74043;BMP280;62384;53.600;10.040;2023-06-10T01:16:34;72425.09;;;15.44
74043;BMP280;62384;53.600;10.040;2023-06-10T01:19:02;72385.44;;;15.39
74043;BMP280;62384;53.600;10.040;2023-06-10T01:21:27;72359.19;;;15.42
74043;BMP280;62384;53.600;10.040;2023-06-10T01:23:54;72210.22;;;15.46
74043;BMP280;62384;53.600;10.040;2023-06-10T01:26:26;72250.97;;;15.44
74043;BMP280;62384;53.600;10.040;2023-06-10T01:29:16;72486.69;;;15.39
74043;BMP280;62384;53.600;10.040;2023-06-10T01:31:48;72196.84;;;15.38
74043;BMP280;62384;53.600;10.040;2023-06-10T01:34:17;72431.47;;;15.29
74043;BMP280;62384;53.600;10.040;2023-06-10T01:40:08;72411.09;;;15.25
74043;BMP280;62384;53.600;10.040;2023-06-10T01:42:34;72484.44;;;15.19
74043;BMP280;62384;53.600;10.040;2023-06-10T01:45:02;72451.25;;;15.20
74043;BMP280;62384;53.600;10.040;2023-06-10T01:47:27;72465.13;;;15.13
74043;BMP280;62384;53.600;10.040;2023-06-10T01:49:53;72265.88;;;15.07
74043;BMP280;62384;53.600;10.040;2023-06-10T01:52:18;72415.31;;;15.12
74043;BMP280;62384;53.600;10.040;2023-06-10T01:54:43;72363.38;;;15.08
74043;BMP280;62384;53.600;10.040;2023-06-10T01:57:09;72377.81;;;15.09
74043;BMP280;62384;53.600;10.040;2023-06-10T01:59:41;72730.81;;;15.11
74043;BMP280;62384;53.600;10.040;2023-06-10T02:02:09;72826.25;;;15.20
74043;BMP280;62384;53.600;10.040;2023-06-10T02:04:36;72760.16;;;15.01
74043;BMP280;62384;53.600;10.040;2023-06-10T02:07:01;72448.47;;;14.98
74043;BMP280;62384;53.600;10.040;2023-06-10T02:09:37;72527.13;;;14.91
74043;BMP280;62384;53.600;10.040;2023-06-10T02:12:03;72429.72;;;14.98
74043;BMP280;62384;53.600;10.040;2023-06-10T02:14:29;72756.94;;;15.03
74043;BMP280;62384;53.600;10.040;2023-06-10T02:16:54;72765.53;;;15.06
74043;BMP280;62384;53.600;10.040;2023-06-10T02:19:22;72688.91;;;15.00
74043;BMP280;62384;53.600;10.040;2023-06-10T02:21:47;72791.84;;;15.11
74043;BMP280;62384;53.600;10.040;2023-06-10T02:24:13;72911.69;;;15.00
74043;BMP280;62384;53.600;10.040;2023-06-10T02:26:38;72542.16;;;14.98
74043;BMP280;62384;53.600;10.040;2023-06-10T02:29:05;72708.72;;;15.01
74043;BMP280;62384;53.600;10.040;2023-06-10T02:31:35;72846.31;;;14.94
74043;BMP280;62384;53.600;10.040;2023-06-10T02:34:01;72738.06;;;14.91
74043;BMP280;62384;53.600;10.040;2023-06-10T02:36:28;72725.78;;;14.92
74043;BMP280;62384;53.600;10.040;2023-06-10T02:38:53;72480.00;;;14.92
74043;BMP280;62384;53.600;10.040;2023-06-10T02:41:19;72544.22;;;14.87
74043;BMP280;62384;53.600;10.040;2023-06-10T02:43:44;72576.78;;;14.75
74043;BMP280;62384;53.600;10.040;2023-06-10T02:46:09;72477.72;;;14.73
74043;BMP280;62384;53.600;10.040;2023-06-10T02:48:45;72518.41;;;14.73
74043;BMP280;62384;53.600;10.040;2023-06-10T02:51:16;72450.44;;;14.72
74043;BMP280;62384;53.600;10.040;2023-06-10T02:53:41;72425.25;;;14.69
74043;BMP280;62384;53.600;10.040;2023-06-10T02:56:06;72385.06;;;14.61
74043;BMP280;62384;53.600;10.040;2023-06-10T02:58:32;72118.59;;;14.65
74043;BMP280;62384;53.600;10.040;2023-06-10T03:00:57;72379.75;;;14.64
74043;BMP280;62384;53.600;10.040;2023-06-10T03:03:23;72401.75;;;14.74
74043;BMP280;62384;53.600;10.040;2023-06-10T03:05:48;72339.69;;;14.79
74043;BMP280;62384;53.600;10.040;2023-06-10T03:08:14;72575.25;;;14.86
74043;BMP280;62384;53.600;10.040;2023-06-10T03:10:39;72591.22;;;14.74
74043;BMP280;62384;53.600;10.040;2023-06-10T03:13:04;72521.09;;;14.71
74043;BMP280;62384;53.600;10.040;2023-06-10T03:15:30;72214.41;;;14.79
74043;BMP280;62384;53.600;10.040;2023-06-10T03:17:59;72234.19;;;14.68
74043;BMP280;62384;53.600;10.040;2023-06-10T03:20:25;72402.78;;;14.68
74043;BMP280;62384;53.600;10.040;2023-06-10T03:22:50;72484.72;;;14.74
74043;BMP280;62384;53.600;10.040;2023-06-10T03:25:16;72555.34;;;14.70
74043;BMP280;62384;53.600;10.040;2023-06-10T03:27:47;72406.03;;;14.76
74043;BMP280;62384;53.600;10.040;2023-06-10T03:30:13;72487.34;;;14.69
74043;BMP280;62384;53.600;10.040;2023-06-10T03:32:38;72507.72;;;14.73
74043;BMP280;62384;53.600;10.040;2023-06-10T03:35:04;72525.41;;;14.77
74043;BMP280;62384;53.600;10.040;2023-06-10T03:37:30;72434.41;;;14.75
74043;BMP280;62384;53.600;10.040;2023-06-10T03:39:55;72383.56;;;14.75
74043;BMP280;62384;53.600;10.040;2023-06-10T03:42:20;72428.47;;;14.72
74043;BMP280;62384;53.600;10.040;2023-06-10T03:44:48;72371.75;;;14.71
74043;BMP280;62384;53.600;10.040;2023-06-10T03:47:13;72395.84;;;14.71
74043;BMP280;62384;53.600;10.040;2023-06-10T03:49:39;72397.50;;;14.83
74043;BMP280;62384;53.600;10.040;2023-06-10T03:52:05;72610.19;;;15.01
74043;BMP280;62384;53.600;10.040;2023-06-10T03:54:31;72633.66;;;14.88
74043;BMP280;62384;53.600;10.040;2023-06-10T03:56:56;72724.31;;;15.05
74043;BMP280;62384;53.600;10.040;2023-06-10T03:59:22;72762.16;;;14.91
74043;BMP280;62384;53.600;10.040;2023-06-10T04:01:47;72609.59;;;14.93
74043;BMP280;62384;53.600;10.040;2023-06-10T04:04:15;72834.06;;;15.03
74043;BMP280;62384;53.600;10.040;2023-06-10T04:06:47;72666.41;;;14.99
74043;BMP280;62384;53.600;10.040;2023-06-10T04:09:13;72787.97;;;15.00
74043;BMP280;62384;53.600;10.040;2023-06-10T04:11:39;72758.53;;;15.02
74043;BMP280;62384;53.600;10.040;2023-06-10T04:14:04;72717.31;;;15.01
74043;BMP280;62384;53.600;10.040;2023-06-10T04:16:30;72605.97;;;15.05
74043;BMP280;62384;53.600;10.040;2023-06-10T04:18:55;72732.94;;;15.11
74043;BMP280;62384;53.600;10.040;2023-06-10T04:21:27;72788.09;;;15.12
74043;BMP280;62384;53.600;10.040;2023-06-10T04:23:52;72858.31;;;15.15
74043;BMP280;62384;53.600;10.040;2023-06-10T04:26:17;72811.16;;;15.14
74043;BMP280;62384;53.600;10.040;2023-06-10T04:28:43;72809.03;;;15.14
74043;BMP280;62384;53.600;10.040;2023-06-10T04:31:09;72762.41;;;15.13
74043;BMP280;62384;53.600;10.040;2023-06-10T04:33:35;72559.50;;;15.26
74043;BMP280;62384;53.600;10.040;2023-06-10T04:36:00;72747.63;;;15.35
74043;BMP280;62384;53.600;10.040;2023-06-10T04:38:25;72756.22;;;15.38
74043;BMP280;62384;53.600;10.040;2023-06-10T04:40:51;72918.59;;;15.37
74043;BMP280;62384;53.600;10.040;2023-06-10T04:43:16;72955.06;;;15.41
74043;BMP280;62384;53.600;10.040;2023-06-10T04:45:42;72838.72;;;15.35
74043;BMP280;62384;53.600;10.040;2023-06-10T04:48:11;72837.75;;;15.44
74043;BMP280;62384;53.600;10.040;2023-06-10T04:50:37;72744.00;;;15.49
74043;BMP280;62384;53.600;10.040;2023-06-10T04:53:02;72587.03;;;15.60
74043;BMP280;62384;53.600;10.040;2023-06-10T04:55:33;72782.69;;;15.60
74043;BMP280;62384;53.600;10.040;2023-06-10T04:58:02;72730.75;;;15.66
74043;BMP280;62384;53.600;10.040;2023-06-10T05:00:27;72802.03;;;15.65
74043;BMP280;62384;53.600;10.040;2023-06-10T05:02:55;72805.31;;;15.71
74043;BMP280;62384;53.600;10.040;2023-06-10T05:05:33;72851.47;;;15.76
74043;BMP280;62384;53.600;10.040;2023-06-10T05:07:58;72979.06;;;15.75
74043;BMP280;62384;53.600;10.040;2023-06-10T05:10:23;73067.25;;;15.95
74043;BMP280;62384;53.600;10.040;2023-06-10T05:12:49;73234.19;;;16.00
74043;BMP280;62384;53.600;10.040;2023-06-10T05:15:14;73104.88;;;16.00
74043;BMP280;62384;53.600;10.040;2023-06-10T05:17:39;73026.59;;;16.04
74043;BMP280;62384;53.600;10.040;2023-06-10T05:20:05;73353.16;;;16.24
74043;BMP280;62384;53.600;10.040;2023-06-10T05:22:31;73411.25;;;16.30
74043;BMP280;62384;53.600;10.040;2023-06-10T05:24:56;73551.38;;;16.33
74043;BMP280;62384;53.600;10.040;2023-06-10T05:27:22;73622.81;;;16.35
74043;BMP280;62384;53.600;10.040;2023-06-10T05:29:47;73685.25;;;16.43
74043;BMP280;62384;53.600;10.040;2023-06-10T05:32:12;73632.75;;;16.49
74043;BMP280;62384;53.600;10.040;2023-06-10T05:34:38;73869.84;;;16.59
74043;BMP280;62384;53.600;10.040;2023-06-10T05:37:04;73923.56;;;16.59
74043;BMP280;62384;53.600;10.040;2023-06-10T05:39:36;73985.94;;;16.62
74043;BMP280;62384;53.600;10.040;2023-06-10T05:42:06;73907.53;;;16.64
74043;BMP280;62384;53.600;10.040;2023-06-10T05:44:31;74031.72;;;16.67
74043;BMP280;62384;53.600;10.040;2023-06-10T05:46:57;74134.16;;;16.80
74043;BMP280;62384;53.600;10.040;2023-06-10T05:49:22;74125.53;;;16.79
74043;BMP280;62384;53.600;10.040;2023-06-10T05:51:47;74099.50;;;16.90
74043;BMP280;62384;53.600;10.040;2023-06-10T05:54:13;74161.34;;;16.92
74043;BMP280;62384;53.600;10.040;2023-06-10T05:56:38;74035.41;;;16.85
74043;BMP280;62384;53.600;10.040;2023-06-10T05:59:03;74303.84;;;16.95
74043;BMP280;62384;53.600;10.040;2023-06-10T06:01:28;74365.38;;;17.02
74043;BMP280;62384;53.600;10.040;2023-06-10T06:03:54;74334.50;;;17.13
74043;BMP280;62384;53.600;10.040;2023-06-10T06:06:19;74450.69;;;17.33
74043;BMP280;62384;53.600;10.040;2023-06-10T06:08:46;74579.09;;;17.28
74043;BMP280;62384;53.600;10.040;2023-06-10T06:11:11;74516.28;;;17.32
74043;BMP280;62384;53.600;10.040;2023-06-10T06:13:36;74599.59;;;17.29
74043;BMP280;62384;53.600;10.040;2023-06-10T06:16:03;74563.66;;;17.33
74043;BMP280;62384;53.600;10.040;2023-06-10T06:18:28;74685.16;;;17.46
74043;BMP280;62384;53.600;10.040;2023-06-10T06:20:53;74633.16;;;17.52
74043;BMP280;62384;53.600;10.040;2023-06-10T06:23:18;74647.31;;;17.58
74043;BMP280;62384;53.600;10.040;2023-06-10T06:25:44;74783.78;;;17.67
74043;BMP280;62384;53.600;10.040;2023-06-10T06:28:09;74860.25;;;17.68
74043;BMP280;62384;53.600;10.040;2023-06-10T06:30:35;74984.06;;;17.82
74043;BMP280;62384;53.600;10.040;2023-06-10T06:33:07;75030.59;;;17.88
74043;BMP280;62384;53.600;10.040;2023-06-10T06:35:35;75103.69;;;17.98
74043;BMP280;62384;53.600;10.040;2023-06-10T06:38:00;75142.66;;;18.04
74043;BMP280;62384;53.600;10.040;2023-06-10T06:40:26;75113.78;;;18.10
74043;BMP280;62384;53.600;10.040;2023-06-10T06:42:51;75175.97;;;18.15
74043;BMP280;62384;53.600;10.040;2023-06-10T06:45:16;75254.53;;;18.13
74043;BMP280;62384;53.600;10.040;2023-06-10T06:47:42;75343.06;;;18.17
74043;BMP280;62384;53.600;10.040;2023-06-10T06:50:08;75372.38;;;18.22
74043;BMP280;62384;53.600;10.040;2023-06-10T06:52:33;75593.94;;;18.37
74043;BMP280;62384;53.600;10.040;2023-06-10T06:54:59;75614.41;;;18.36
74043;BMP280;62384;53.600;10.040;2023-06-10T06:57:24;75715.38;;;18.51
74043;BMP280;62384;53.600;10.040;2023-06-10T06:59:49;75771.81;;;18.58
74043;BMP280;62384;53.600;10.040;2023-06-10T07:02:15;75954.19;;;18.72
74043;BMP280;62384;53.600;10.040;2023-06-10T07:04:40;76105.75;;;18.82
74043;BMP280;62384;53.600;10.040;2023-06-10T07:07:07;76219.72;;;18.85
74043;BMP280;62384;53.600;10.040;2023-06-10T07:09:34;76274.09;;;18.93
74043;BMP280;62384;53.600;10.040;2023-06-10T07:11:59;76388.25;;;18.98
74043;BMP280;62384;53.600;10.040;2023-06-10T07:14:24;76416.53;;;19.11
74043;BMP280;62384;53.600;10.040;2023-06-10T07:16:50;76574.22;;;19.22
74043;BMP280;62384;53.600;10.040;2023-06-10T07:19:15;76719.50;;;19.40
74043;BMP280;62384;53.600;10.040;2023-06-10T07:21:40;76652.84;;;19.36
74043;BMP280;62384;53.600;10.040;2023-06-10T07:24:12;76692.66;;;19.43
74043;BMP280;62384;53.600;10.040;2023-06-10T07:26:37;76802.03;;;19.56
74043;BMP280;62384;53.600;10.040;2023-06-10T07:29:02;76892.59;;;19.62
74043;BMP280;62384;53.600;10.040;2023-06-10T07:31:28;76928.69;;;19.77
74043;BMP280;62384;53.600;10.040;2023-06-10T07:33:53;76982.38;;;19.89
74043;BMP280;62384;53.600;10.040;2023-06-10T07:36:27;77041.53;;;20.00
74043;BMP280;62384;53.600;10.040;2023-06-10T07:39:02;77121.78;;;20.04
74043;BMP280;62384;53.600;10.040;2023-06-10T07:44:45;77182.63;;;20.17
74043;BMP280;62384;53.600;10.040;2023-06-10T07:47:10;77219.28;;;20.40
74043;BMP280;62384;53.600;10.040;2023-06-10T07:49:37;77290.53;;;20.45
74043;BMP280;62384;53.600;10.040;2023-06-10T07:52:02;77273.16;;;20.44
74043;BMP280;62384;53.600;10.040;2023-06-10T07:54:28;77334.69;;;20.74
74043;BMP280;62384;53.600;10.040;2023-06-10T07:56:59;77387.66;;;20.73
74043;BMP280;62384;53.600;10.040;2023-06-10T07:59:24;77402.94;;;20.75
74043;BMP280;62384;53.600;10.040;2023-06-10T08:01:51;77398.09;;;20.92
74043;BMP280;62384;53.600;10.040;2023-06-10T08:04:16;77453.50;;;21.03
74043;BMP280;62384;53.600;10.040;2023-06-10T08:06:47;77507.44;;;21.07
74043;BMP280;62384;53.600;10.040;2023-06-10T08:09:12;77545.41;;;21.24
74043;BMP280;62384;53.600;10.040;2023-06-10T08:11:37;77574.66;;;21.16
74043;BMP280;62384;53.600;10.040;2023-06-10T08:14:03;77584.75;;;21.13
74043;BMP280;62384;53.600;10.040;2023-06-10T08:16:28;77602.91;;;21.41
74043;BMP280;62384;53.600;10.040;2023-06-10T08:19:24;77650.03;;;21.49
74043;BMP280;62384;53.600;10.040;2023-06-10T08:21:49;77655.13;;;21.67
74043;BMP280;62384;53.600;10.040;2023-06-10T08:24:15;77689.31;;;21.76
74043;BMP280;62384;53.600;10.040;2023-06-10T08:26:42;77705.53;;;21.83
74043;BMP280;62384;53.600;10.040;2023-06-10T08:29:08;77717.94;;;21.82
74043;BMP280;62384;53.600;10.040;2023-06-10T08:31:33;77730.16;;;22.02
74043;BMP280;62384;53.600;10.040;2023-06-10T08:34:01;77764.50;;;22.20
74043;BMP280;62384;53.600;10.040;2023-06-10T08:40:07;77855.13;;;22.52
74043;BMP280;62384;53.600;10.040;2023-06-10T08:42:38;77910.06;;;22.69
74043;BMP280;62384;53.600;10.040;2023-06-10T08:45:04;77935.25;;;22.95
74043;BMP280;62384;53.600;10.040;2023-06-10T08:47:33;77945.63;;;23.05
74043;BMP280;62384;53.600;10.040;2023-06-10T08:50:03;77981.72;;;23.08
74043;BMP280;62384;53.600;10.040;2023-06-10T08:52:35;78031.44;;;23.27
74043;BMP280;62384;53.600;10.040;2023-06-10T08:55:18;78001.16;;;23.06
74043;BMP280;62384;53.600;10.040;2023-06-10T08:57:48;77985.66;;;23.02
74043;BMP280;62384;53.600;10.040;2023-06-10T09:00:15;78038.63;;;23.29
74043;BMP280;62384;53.600;10.040;2023-06-10T09:02:42;78050.41;;;23.34
74043;BMP280;62384;53.600;10.040;2023-06-10T09:05:08;78071.69;;;23.67
74043;BMP280;62384;53.600;10.040;2023-06-10T09:07:35;78110.88;;;23.75
74043;BMP280;62384;53.600;10.040;2023-06-10T09:10:01;78155.19;;;23.94
74043;BMP280;62384;53.600;10.040;2023-06-10T09:12:29;78168.84;;;24.11
74043;BMP280;62384;53.600;10.040;2023-06-10T09:14:54;78160.50;;;24.32
74043;BMP280;62384;53.600;10.040;2023-06-10T09:17:20;78235.66;;;24.41
74043;BMP280;62384;53.600;10.040;2023-06-10T09:19:46;78212.16;;;24.15
74043;BMP280;62384;53.600;10.040;2023-06-10T09:22:11;78220.78;;;24.30
74043;BMP280;62384;53.600;10.040;2023-06-10T09:24:37;78217.16;;;24.25
74043;BMP280;62384;53.600;10.040;2023-06-10T09:27:08;78249.72;;;24.39
74043;BMP280;62384;53.600;10.040;2023-06-10T09:29:58;78266.50;;;24.53
74043;BMP280;62384;53.600;10.040;2023-06-10T09:32:24;78264.56;;;24.49
74043;BMP280;62384;53.600;10.040;2023-06-10T09:34:50;78253.22;;;24.58
74043;BMP280;62384;53.600;10.040;2023-06-10T09:37:23;78320.19;;;24.97
74043;BMP280;62384;53.600;10.040;2023-06-10T09:40:07;78341.84;;;25.11
74043;BMP280;62384;53.600;10.040;2023-06-10T09:42:34;78383.34;;;25.52
74043;BMP280;62384;53.600;10.040;2023-06-10T09:45:03;78405.25;;;25.62
74043;BMP280;62384;53.600;10.040;2023-06-10T09:47:29;78438.69;;;25.72
74043;BMP280;62384;53.600;10.040;2023-06-10T09:50:04;78442.97;;;25.87
74043;BMP280;62384;53.600;10.040;2023-06-10T09:52:48;78479.16;;;25.97
74043;BMP280;62384;53.600;10.040;2023-06-10T09:55:14;78454.47;;;25.88
74043;BMP280;62384;53.600;10.040;2023-06-10T09:57:39;78486.94;;;25.99
74043;BMP280;62384;53.600;10.040;2023-06-10T10:00:08;78457.97;;;25.91
74043;BMP280;62384;53.600;10.040;2023-06-10T10:02:48;78461.78;;;25.99
74043;BMP280;62384;53.600;10.040;2023-06-10T10:05:16;78487.59;;;26.09
74043;BMP280;62384;53.600;10.040;2023-06-10T10:07:43;78545.16;;;26.45
74043;BMP280;62384;53.600;10.040;2023-06-10T10:10:10;78544.56;;;26.44
74043;BMP280;62384;53.600;10.040;2023-06-10T10:12:39;78545.16;;;26.45
74043;BMP280;62384;53.600;10.040;2023-06-10T10:15:10;78579.94;;;26.58
74043;BMP280;62384;53.600;10.040;2023-06-10T10:17:49;78702.44;;;27.57
74043;BMP280;62384;53.600;10.040;2023-06-10T10:20:18;78996.59;;;29.31
74043;BMP280;62384;53.600;10.040;2023-06-10T10:22:46;79166.09;;;30.56
74043;BMP280;62384;53.600;10.040;2023-06-10T10:25:32;79246.63;;;31.20
74043;BMP280;62384;53.600;10.040;2023-06-10T10:28:55;79428.59;;;32.30
74043;BMP280;62384;53.600;10.040;2023-06-10T10:31:23;79444.03;;;32.38
74043;BMP280;62384;53.600;10.040;2023-06-10T10:33:54;79524.75;;;32.77
74043;BMP280;62384;53.600;10.040;2023-06-10T10:36:21;79576.03;;;33.21
74043;BMP280;62384;53.600;10.040;2023-06-10T10:38:48;79521.16;;;32.90
74043;BMP280;62384;53.600;10.040;2023-06-10T10:41:15;79521.75;;;33.10
74043;BMP280;62384;53.600;10.040;2023-06-10T10:43:46;79568.63;;;33.36
74043;BMP280;62384;53.600;10.040;2023-06-10T10:46:16;79593.50;;;33.26
74043;BMP280;62384;53.600;10.040;2023-06-10T10:48:56;79511.09;;;32.89
74043;BMP280;62384;53.600;10.040;2023-06-10T10:51:33;79514.50;;;33.08
74043;BMP280;62384;53.600;10.040;2023-06-10T10:54:12;79673.91;;;33.86
74043;BMP280;62384;53.600;10.040;2023-06-10T10:56:38;79625.56;;;33.63
74043;BMP280;62384;53.600;10.040;2023-06-10T10:59:07;79712.63;;;34.05
74043;BMP280;62384;53.600;10.040;2023-06-10T11:01:43;79580.88;;;33.37
74043;BMP280;62384;53.600;10.040;2023-06-10T11:04:17;79634.28;;;33.80
74043;BMP280;62384;53.600;10.040;2023-06-10T11:07:05;79452.69;;;32.72
74043;BMP280;62384;53.600;10.040;2023-06-10T11:09:31;79497.19;;;32.96
74043;BMP280;62384;53.600;10.040;2023-06-10T11:11:57;79552.50;;;33.43
74043;BMP280;62384;53.600;10.040;2023-06-10T11:14:27;79502.56;;;33.03
74043;BMP280;62384;53.600;10.040;2023-06-10T11:16:58;79609.25;;;33.68
74043;BMP280;62384;53.600;10.040;2023-06-10T11:19:36;79800.53;;;34.97
74043;BMP280;62384;53.600;10.040;2023-06-10T11:22:06;79585.53;;;33.60
74043;BMP280;62384;53.600;10.040;2023-06-10T11:24:51;79616.22;;;33.65
74043;BMP280;62384;53.600;10.040;2023-06-10T11:27:47;79629.66;;;33.67
74043;BMP280;62384;53.600;10.040;2023-06-10T11:30:34;79485.72;;;33.07
74043;BMP280;62384;53.600;10.040;2023-06-10T11:33:00;79546.66;;;33.48
74043;BMP280;62384;53.600;10.040;2023-06-10T11:35:25;79448.31;;;32.92
74043;BMP280;62384;53.600;10.040;2023-06-10T11:37:52;79478.41;;;32.96
74043;BMP280;62384;53.600;10.040;2023-06-10T11:40:17;79524.84;;;33.43
74043;BMP280;62384;53.600;10.040;2023-06-10T11:42:43;79490.81;;;33.28
74043;BMP280;62384;53.600;10.040;2023-06-10T11:45:09;79562.97;;;33.71
74043;BMP280;62384;53.600;10.040;2023-06-10T11:47:35;79619.31;;;34.08
74043;BMP280;62384;53.600;10.040;2023-06-10T11:50:39;79562.38;;;33.71
74043;BMP280;62384;53.600;10.040;2023-06-10T11:53:08;79420.56;;;32.99
74043;BMP280;62384;53.600;10.040;2023-06-10T11:58:33;79634.28;;;34.37
74043;BMP280;62384;53.600;10.040;2023-06-10T12:00:58;79464.91;;;33.30
74043;BMP280;62384;53.600;10.040;2023-06-10T12:03:26;79555.13;;;33.79
74043;BMP280;62384;53.600;10.040;2023-06-10T12:05:55;79713.50;;;34.77
74043;BMP280;62384;53.600;10.040;2023-06-10T12:08:20;79525.13;;;33.58
74043;BMP280;62384;53.600;10.040;2023-06-10T12:10:46;79570.09;;;33.70
74043;BMP280;62384;53.600;10.040;2023-06-10T12:13:12;79548.53;;;33.80
74043;BMP280;62384;53.600;10.040;2023-06-10T12:15:37;79533.56;;;33.70
74043;BMP280;62384;53.600;10.040;2023-06-10T12:18:03;79625.53;;;34.49
74043;BMP280;62384;53.600;10.040;2023-06-10T12:20:37;79620.59;;;34.21
74043;BMP280;62384;53.600;10.040;2023-06-10T12:23:09;79546.78;;;33.98
74043;BMP280;62384;53.600;10.040;2023-06-10T12:25:38;79611.44;;;34.15
74043;BMP280;62384;53.600;10.040;2023-06-10T12:28:04;79628.75;;;34.37
74043;BMP280;62384;53.600;10.040;2023-06-10T12:30:33;79612.41;;;34.33
74043;BMP280;62384;53.600;10.040;2023-06-10T12:32:59;79592.03;;;34.34
74043;BMP280;62384;53.600;10.040;2023-06-10T12:35:28;79528.59;;;33.99
74043;BMP280;62384;53.600;10.040;2023-06-10T12:37:58;79391.78;;;33.26
74043;BMP280;62384;53.600;10.040;2023-06-10T12:40:32;79551.59;;;34.04
74043;BMP280;62384;53.600;10.040;2023-06-10T12:43:03;79481.81;;;33.54
74043;BMP280;62384;53.600;10.040;2023-06-10T12:45:36;79544.31;;;33.93
74043;BMP280;62384;53.600;10.040;2023-06-10T12:48:19;79431.03;;;33.36
74043;BMP280;62384;53.600;10.040;2023-06-10T12:50:53;79385.25;;;32.90
74043;BMP280;62384;53.600;10.040;2023-06-10T12:53:20;79308.69;;;32.45
74043;BMP280;62384;53.600;10.040;2023-06-10T12:55:46;79261.72;;;31.88
74043;BMP280;62384;53.600;10.040;2023-06-10T12:58:13;79119.91;;;31.11
74043;BMP280;62384;53.600;10.040;2023-06-10T13:00:39;79080.72;;;30.72
74043;BMP280;62384;53.600;10.040;2023-06-10T13:03:04;79069.13;;;30.72
74043;BMP280;62384;53.600;10.040;2023-06-10T13:05:48;79007.53;;;30.45
74043;BMP280;62384;53.600;10.040;2023-06-10T13:08:14;79073.16;;;30.66
74043;BMP280;62384;53.600;10.040;2023-06-10T13:10:44;79026.19;;;30.54
74043;BMP280;62384;53.600;10.040;2023-06-10T13:13:09;79013.03;;;30.45
74043;BMP280;62384;53.600;10.040;2023-06-10T13:15:34;78968.06;;;30.11
74043;BMP280;62384;53.600;10.040;2023-06-10T13:18:03;78994.28;;;30.26
74043;BMP280;62384;53.600;10.040;2023-06-10T13:20:29;78988.16;;;30.16
74043;BMP280;62384;53.600;10.040;2023-06-10T13:22:54;78956.19;;;30.05
74043;BMP280;62384;53.600;10.040;2023-06-10T13:25:20;78989.81;;;30.25
74043;BMP280;62384;53.600;10.040;2023-06-10T13:27:47;78962.66;;;30.03
74043;BMP280;62384;53.600;10.040;2023-06-10T13:30:12;78965.25;;;29.91
74043;BMP280;62384;53.600;10.040;2023-06-10T13:32:38;78967.69;;;29.96
74043;BMP280;62384;53.600;10.040;2023-06-10T13:35:34;78957.44;;;29.99
74043;BMP280;62384;53.600;10.040;2023-06-10T13:38:00;78948.59;;;29.89
74043;BMP280;62384;53.600;10.040;2023-06-10T13:40:26;78894.84;;;29.64
74043;BMP280;62384;53.600;10.040;2023-06-10T13:42:51;78937.50;;;29.70
74043;BMP280;62384;53.600;10.040;2023-06-10T13:45:17;78873.63;;;29.31
74043;BMP280;62384;53.600;10.040;2023-06-10T13:51:04;78865.06;;;29.00
74043;BMP280;62384;53.600;10.040;2023-06-10T13:53:30;78801.63;;;28.86
74043;BMP280;62384;53.600;10.040;2023-06-10T13:55:55;78788.81;;;28.91
74043;BMP280;62384;53.600;10.040;2023-06-10T13:58:25;78815.47;;;29.14
74043;BMP280;62384;53.600;10.040;2023-06-10T14:00:51;78853.81;;;29.31
74043;BMP280;62384;53.600;10.040;2023-06-10T14:03:28;78854.91;;;29.13
74043;BMP280;62384;53.600;10.040;2023-06-10T14:06:12;78830.97;;;29.25
74043;BMP280;62384;53.600;10.040;2023-06-10T14:08:44;78805.13;;;28.98
74043;BMP280;62384;53.600;10.040;2023-06-10T14:11:09;78810.22;;;28.74
74043;BMP280;62384;53.600;10.040;2023-06-10T14:13:44;78835.03;;;28.93
74043;BMP280;62384;53.600;10.040;2023-06-10T14:16:09;78799.72;;;28.82
74043;BMP280;62384;53.600;10.040;2023-06-10T14:18:34;78792.03;;;28.73
74043;BMP280;62384;53.600;10.040;2023-06-10T14:21:24;78780.47;;;28.72